createdAt,value
2022-08-05T00:01:48.570Z,41.94
2022-08-05T00:04:18.273Z,42.75
2022-08-05T00:06:47.024Z,42.28
2022-08-05T00:09:15.711Z,42.58
2022-08-05T00:11:48.457Z,43.04
2022-08-05T00:14:18.293Z,45.10
2022-08-05T00:16:52.537Z,44.07
2022-08-05T00:19:25.067Z,45.80
2022-08-05T00:22:02.104Z,45.78
2022-08-05T00:24:30.757Z,45.74
2022-08-05T00:26:59.852Z,45.22
2022-08-05T00:29:37.783Z,46.41
2022-08-05T00:32:12.341Z,46.18
2022-08-05T00:35:05.436Z,46.16
2022-08-05T00:37:50.987Z,47.02
2022-08-05T00:40:28.230Z,47.12
2022-08-05T00:43:02.091Z,46.41
2022-08-05T00:45:42.728Z,47.73
2022-08-05T00:48:14.221Z,47.65
2022-08-05T00:50:46.060Z,46.57
2022-08-05T00:53:59.858Z,46.11
2022-08-05T00:56:05.685Z,48.18
2022-08-05T00:58:36.186Z,47.12
2022-08-05T01:01:08.501Z,47.42
2022-08-05T01:03:38.575Z,47.70
2022-08-05T01:06:14.248Z,47.49
2022-08-05T01:08:44.497Z,46.80
2022-08-05T01:11:22.581Z,49.05
2022-08-05T01:14:18.186Z,48.67
2022-08-05T01:17:15.392Z,46.63
2022-08-05T01:20:01.853Z,46.55
2022-08-05T01:23:14.527Z,47.33
2022-08-05T01:26:06.058Z,46.88
2022-08-05T01:28:44.160Z,48.20
2022-08-05T01:31:29.990Z,46.58
2022-08-05T01:34:20.712Z,48.42
2022-08-05T01:37:24.686Z,47.41
2022-08-05T01:39:58.686Z,46.18
2022-08-05T01:42:29.448Z,47.32
2022-08-05T01:45:02.362Z,46.21
2022-08-05T01:47:39.527Z,46.32
2022-08-05T01:50:29.754Z,47.73
2022-08-05T01:53:02.034Z,45.52
2022-08-05T01:55:36.747Z,45.77
2022-08-05T01:58:15.749Z,45.83
2022-08-05T02:00:47.627Z,46.79
2022-08-05T02:03:32.095Z,46.66
2022-08-05T02:06:33.436Z,45.72
2022-08-05T02:08:59.001Z,46.40
2022-08-05T02:11:33.851Z,47.23
2022-08-05T02:14:22.489Z,47.25
2022-08-05T02:17:03.159Z,46.50
2022-08-05T02:19:47.015Z,46.58
2022-08-05T02:22:25.668Z,46.72
2022-08-05T02:25:19.965Z,47.29
2022-08-05T02:27:58.431Z,46.73
2022-08-05T02:30:51.873Z,47.60
2022-08-05T02:33:38.114Z,48.31
2022-08-05T02:36:20.275Z,49.70
2022-08-05T02:38:53.601Z,51.75
2022-08-05T02:41:28.406Z,55.44
2022-08-05T02:44:13.101Z,54.48
2022-08-05T02:46:58.311Z,59.78
2022-08-05T02:49:40.462Z,55.64
2022-08-05T02:52:29.543Z,58.96
2022-08-05T02:55:17.556Z,61.82
2022-08-05T02:58:19.708Z,58.81
2022-08-05T03:00:48.971Z,62.74
2022-08-05T03:04:03.430Z,62.44
2022-08-05T03:06:53.575Z,62.25
2022-08-05T03:09:17.838Z,60.78
2022-08-05T03:11:57.958Z,60.09
2022-08-05T03:14:26.258Z,61.88
2022-08-05T03:16:53.935Z,62.78
2022-08-05T03:19:34.108Z,64.49
2022-08-05T03:22:04.849Z,63.10
2022-08-05T03:24:51.049Z,63.10
2022-08-05T03:27:21.606Z,62.06
2022-08-05T03:30:07.680Z,61.84
2022-08-05T03:32:39.278Z,62.76
2022-08-05T03:35:09.645Z,61.16
2022-08-05T03:37:46.762Z,61.49
2022-08-05T03:40:24.391Z,60.46
2022-08-05T03:43:58.566Z,60.47
2022-08-05T03:45:58.239Z,59.18
2022-08-05T03:48:30.311Z,59.00
2022-08-05T03:52:38.911Z,59.00
2022-08-05T03:55:51.581Z,59.98
2022-08-05T03:57:41.270Z,60.77
2022-08-05T04:00:07.112Z,60.94
2022-08-05T04:02:57.777Z,60.92
2022-08-05T04:05:40.118Z,59.54
2022-08-05T04:08:29.628Z,59.43
2022-08-05T04:11:02.749Z,59.96
2022-08-05T04:13:50.564Z,59.53
2022-08-05T04:16:25.079Z,58.88
2022-08-05T04:18:57.767Z,58.36
2022-08-05T04:22:10.247Z,58.58
2022-08-05T04:24:19.564Z,58.33
2022-08-05T04:26:51.225Z,58.04
2022-08-05T04:29:20.017Z,58.12
2022-08-05T04:31:49.881Z,57.12
2022-08-05T04:34:32.850Z,57.65
2022-08-05T04:37:03.341Z,58.61
2022-08-05T04:39:35.437Z,58.65
2022-08-05T04:42:03.916Z,58.88
2022-08-05T04:44:35.980Z,59.86
2022-08-05T04:47:08.924Z,59.54
2022-08-05T04:50:01.712Z,59.39
2022-08-05T04:52:28.454Z,58.57
2022-08-05T04:54:57.457Z,57.94
2022-08-05T04:57:28.510Z,57.67
2022-08-05T04:59:58.604Z,57.29
2022-08-05T05:02:37.655Z,56.89
2022-08-05T05:05:16.652Z,56.48
2022-08-05T05:08:00.829Z,55.50
2022-08-05T05:10:33.581Z,53.97
2022-08-05T05:13:03.965Z,53.15
2022-08-05T05:15:56.495Z,52.87
2022-08-05T05:18:31.123Z,52.91
2022-08-05T05:21:03.783Z,51.81
2022-08-05T05:24:03.028Z,49.04
2022-08-05T05:26:19.364Z,47.34
2022-08-05T05:28:46.601Z,49.06
2022-08-05T05:31:14.142Z,48.54
2022-08-05T05:34:01.614Z,45.62
2022-08-05T05:36:29.722Z,49.29
2022-08-05T05:38:58.953Z,49.17
2022-08-05T05:41:26.616Z,50.09
2022-08-05T05:44:35.608Z,48.72
2022-08-05T05:46:57.892Z,46.62
2022-08-05T05:49:26.329Z,46.22
2022-08-05T05:51:55.017Z,46.13
2022-08-05T05:54:22.790Z,45.25
2022-08-05T05:57:13.567Z,44.10
2022-08-05T05:59:47.150Z,45.27
2022-08-05T06:02:16.664Z,46.03
2022-08-05T06:04:49.256Z,45.51
2022-08-05T06:07:16.838Z,50.13
2022-08-05T06:10:01.639Z,51.34
2022-08-05T06:12:35.154Z,51.63
2022-08-05T06:15:16.421Z,52.51
2022-08-05T06:17:54.381Z,54.20
2022-08-05T06:20:23.402Z,53.19
2022-08-05T06:22:51.440Z,52.38
2022-08-05T06:25:59.695Z,51.72
2022-08-05T06:28:12.069Z,51.17
2022-08-05T06:30:48.011Z,52.47
2022-08-05T06:33:19.449Z,50.73
2022-08-05T06:36:07.767Z,51.68
2022-08-05T06:38:37.342Z,50.51
2022-08-05T06:41:08.228Z,48.56
2022-08-05T06:43:57.412Z,47.42
2022-08-05T06:46:29.759Z,49.47
2022-08-05T06:48:59.726Z,48.07
2022-08-05T06:51:31.078Z,46.69
2022-08-05T06:54:01.741Z,42.70
2022-08-05T06:56:34.462Z,44.88
2022-08-05T06:59:09.730Z,43.86
2022-08-05T07:01:42.666Z,42.74
2022-08-05T07:04:14.122Z,41.82
2022-08-05T07:06:41.978Z,41.87
2022-08-05T07:09:09.276Z,40.57
2022-08-05T07:11:39.702Z,39.81
2022-08-05T07:14:29.795Z,39.34
2022-08-05T07:18:01.316Z,39.34
2022-08-05T07:22:42.183Z,38.62
2022-08-05T07:25:22.869Z,38.12
2022-08-05T07:28:04.091Z,37.63
2022-08-05T07:33:37.019Z,36.87
2022-08-05T07:36:21.150Z,36.29
2022-08-05T07:38:49.450Z,36.36
2022-08-05T07:42:12.775Z,37.50
2022-08-05T07:44:18.365Z,36.39
2022-08-05T07:46:49.332Z,34.98
2022-08-05T07:49:43.595Z,35.46
2022-08-05T07:52:23.948Z,35.69
2022-08-05T07:54:53.674Z,36.05
2022-08-05T07:57:41.620Z,35.00
2022-08-05T08:00:14.530Z,31.72
2022-08-05T08:03:14.010Z,32.02
2022-08-05T08:05:29.818Z,31.05
2022-08-05T08:07:59.036Z,30.17
2022-08-05T08:10:28.150Z,31.07
2022-08-05T08:12:56.031Z,30.95
2022-08-05T08:15:37.447Z,30.42
2022-08-05T08:18:14.700Z,27.59
2022-08-05T08:21:02.342Z,28.79
2022-08-05T08:24:03.054Z,27.58
2022-08-05T08:26:26.691Z,29.07
2022-08-05T08:29:24.564Z,27.86
2022-08-05T08:31:47.591Z,26.26
2022-08-05T08:34:18.677Z,27.52
2022-08-05T08:37:01.744Z,25.96
2022-08-05T08:39:37.534Z,27.36
2022-08-05T08:42:15.244Z,26.17
2022-08-05T08:45:17.858Z,26.29
2022-08-05T08:48:06.804Z,25.00
2022-08-05T08:51:04.084Z,26.00
2022-08-05T08:53:27.497Z,25.74
2022-08-05T08:56:04.116Z,24.89
2022-08-05T08:58:43.857Z,24.69
2022-08-05T09:01:17.911Z,25.95
2022-08-05T09:03:54.230Z,25.58
2022-08-05T09:06:29.008Z,24.44
2022-08-05T09:09:02.152Z,23.52
2022-08-05T09:11:51.346Z,24.23
2022-08-05T09:14:58.633Z,24.14
2022-08-05T09:17:42.768Z,23.74
2022-08-05T09:20:02.503Z,23.93
2022-08-05T09:23:18.912Z,23.90
2022-08-05T09:26:15.861Z,24.17
2022-08-05T09:28:48.781Z,24.63
2022-08-05T09:31:22.777Z,23.40
2022-08-05T09:34:10.062Z,23.87
2022-08-05T09:36:54.004Z,25.08
2022-08-05T09:39:41.485Z,24.71
2022-08-05T09:42:23.232Z,24.10
2022-08-05T09:44:55.999Z,25.52
2022-08-05T09:47:48.019Z,25.52
2022-08-05T09:50:38.945Z,24.26
2022-08-05T09:53:12.033Z,24.62
2022-08-05T09:56:04.522Z,24.39
2022-08-05T09:58:32.367Z,25.10
2022-08-05T10:01:14.600Z,24.89
2022-08-05T10:04:03.634Z,24.46
2022-08-05T10:06:32.726Z,25.24
2022-08-05T10:09:27.428Z,23.98
2022-08-05T10:12:30.722Z,23.95
2022-08-05T10:15:17.147Z,24.55
2022-08-05T10:18:02.909Z,24.97
2022-08-05T10:20:33.544Z,26.26
2022-08-05T10:23:02.153Z,24.65
2022-08-05T10:25:31.177Z,23.07
2022-08-05T10:28:12.961Z,22.69
2022-08-05T10:32:54.222Z,22.59
2022-08-05T10:33:36.021Z,23.62
2022-08-05T10:36:05.365Z,24.34
2022-08-05T10:38:35.284Z,23.18
2022-08-05T10:41:13.998Z,23.29
2022-08-05T10:43:52.369Z,23.59
2022-08-05T10:46:24.143Z,22.87
2022-08-05T10:49:09.882Z,22.80
2022-08-05T10:51:57.751Z,23.08
2022-08-05T10:54:56.168Z,22.55
2022-08-05T10:57:30.825Z,21.69
2022-08-05T11:00:19.269Z,21.44
2022-08-05T11:03:24.981Z,20.60
2022-08-05T11:06:31.087Z,20.43
2022-08-05T11:09:17.196Z,21.61
2022-08-05T11:11:53.873Z,21.16
2022-08-05T11:15:11.481Z,21.15
2022-08-05T11:17:58.676Z,21.78
2022-08-05T11:20:39.135Z,21.29
2022-08-05T11:23:33.020Z,21.16
2022-08-05T11:26:09.124Z,22.24
2022-08-05T11:28:39.872Z,20.95
2022-08-05T11:31:07.686Z,21.24
2022-08-05T11:33:52.630Z,21.85
2022-08-05T11:36:42.961Z,22.11
2022-08-05T11:39:14.876Z,21.80
2022-08-05T11:42:01.477Z,22.85
2022-08-05T11:44:40.697Z,22.78
2022-08-05T11:47:48.235Z,21.73
2022-08-05T11:50:14.231Z,22.47
2022-08-05T11:52:44.143Z,22.86
2022-08-05T11:55:16.372Z,21.65
2022-08-05T11:58:09.941Z,21.75
2022-08-05T12:00:38.043Z,24.28
2022-08-05T12:03:28.365Z,23.37
2022-08-05T12:06:06.636Z,23.07
2022-08-05T12:08:48.027Z,21.91
2022-08-05T12:11:39.946Z,22.07
2022-08-05T12:14:10.053Z,22.27
2022-08-05T12:16:40.630Z,22.94
2022-08-05T12:20:25.896Z,21.79
2022-08-05T12:22:02.717Z,20.78
2022-08-05T12:24:30.517Z,22.70
2022-08-05T12:26:58.175Z,23.67
2022-08-05T12:29:27.385Z,22.78
2022-08-05T12:31:56.161Z,22.98
2022-08-05T12:34:28.567Z,23.50
2022-08-05T12:36:58.275Z,22.31
2022-08-05T12:39:27.919Z,22.30
2022-08-05T12:42:02.881Z,23.52
2022-08-05T12:44:33.717Z,21.93
2022-08-05T12:47:02.819Z,22.68
2022-08-05T12:50:03.315Z,22.98
2022-08-05T12:52:41.845Z,22.66
2022-08-05T12:55:25.893Z,23.66
2022-08-05T12:58:50.285Z,24.04
2022-08-05T13:02:01.239Z,21.59
2022-08-05T13:03:41.587Z,22.70
2022-08-05T13:06:18.296Z,22.81
2022-08-05T13:09:09.236Z,21.35
2022-08-05T13:12:03.134Z,22.57
2022-08-05T13:14:36.938Z,24.26
2022-08-05T13:17:11.510Z,22.32
2022-08-05T13:19:52.367Z,23.39
2022-08-05T13:22:28.275Z,23.02
2022-08-05T13:25:08.016Z,22.19
2022-08-05T13:27:50.380Z,22.47
2022-08-05T13:30:34.629Z,22.67
2022-08-05T13:33:04.548Z,22.83
2022-08-05T13:35:47.555Z,23.81
2022-08-05T13:38:30.763Z,22.21
2022-08-05T13:41:02.772Z,22.71
2022-08-05T13:43:43.507Z,24.17
2022-08-05T13:46:14.882Z,22.62
2022-08-05T13:48:58.418Z,22.61
2022-08-05T13:51:40.427Z,23.38
2022-08-05T13:54:12.742Z,23.29
2022-08-05T13:56:44.937Z,23.01
2022-08-05T13:59:23.733Z,24.15
2022-08-05T14:01:59.267Z,22.60
2022-08-05T14:04:51.730Z,23.66
2022-08-05T14:07:25.728Z,23.59
2022-08-05T14:10:28.434Z,22.57
2022-08-05T14:12:57.174Z,23.21
2022-08-05T14:16:04.768Z,23.38
2022-08-05T14:18:15.106Z,22.83
2022-08-05T14:20:48.449Z,21.24
2022-08-05T14:23:19.272Z,22.22
2022-08-05T14:25:58.500Z,22.92
2022-08-05T14:28:28.785Z,23.02
2022-08-05T14:30:58.402Z,22.16
2022-08-05T14:33:27.122Z,23.45
2022-08-05T14:36:02.203Z,23.61
2022-08-05T14:38:34.054Z,23.13
2022-08-05T14:41:07.667Z,23.05
2022-08-05T14:43:57.753Z,22.83
2022-08-05T14:46:29.768Z,23.50
2022-08-05T14:49:06.918Z,23.03
2022-08-05T14:51:39.048Z,22.93
2022-08-05T14:54:28.367Z,23.16
2022-08-05T14:56:59.215Z,23.36
2022-08-05T14:59:29.695Z,22.57
2022-08-05T15:02:15.018Z,22.83
2022-08-05T15:04:49.973Z,24.23
2022-08-05T15:08:08.523Z,22.71
2022-08-05T15:10:11.667Z,22.73
2022-08-05T15:12:59.744Z,23.33
2022-08-05T15:15:55.899Z,24.55
2022-08-05T15:18:17.237Z,24.95
2022-08-05T15:20:47.048Z,25.20
2022-08-05T15:23:18.259Z,25.19
2022-08-05T15:25:52.235Z,25.05
2022-08-05T15:28:27.598Z,24.63
2022-08-05T15:30:56.219Z,24.78
2022-08-05T15:34:18.506Z,24.14
2022-08-05T15:36:17.412Z,24.97
2022-08-05T15:40:41.296Z,24.16
2022-08-05T15:41:55.973Z,23.60
2022-08-05T15:44:30.971Z,24.60
2022-08-05T15:47:03.598Z,24.17
2022-08-05T15:49:48.265Z,24.35
2022-08-05T15:52:52.212Z,25.24
2022-08-05T15:55:10.420Z,25.02
2022-08-05T15:57:43.889Z,25.74
2022-08-05T16:00:13.294Z,25.36
2022-08-05T16:02:46.869Z,25.56
2022-08-05T16:05:14.810Z,24.72
2022-08-05T16:07:46.649Z,24.31
2022-08-05T16:10:16.953Z,24.90
2022-08-05T16:12:51.586Z,25.68
2022-08-05T16:15:21.747Z,25.42
2022-08-05T16:17:57.826Z,25.40
2022-08-05T16:20:27.999Z,25.58
2022-08-05T16:22:55.961Z,25.89
2022-08-05T16:25:32.323Z,26.28
2022-08-05T16:28:06.010Z,25.42
2022-08-05T16:30:36.139Z,25.92
2022-08-05T16:33:04.382Z,26.09
2022-08-05T16:35:33.467Z,26.76
2022-08-05T16:38:24.606Z,26.49
2022-08-05T16:40:59.507Z,26.60
2022-08-05T16:43:34.472Z,26.42
2022-08-05T16:46:12.869Z,27.11
2022-08-05T16:48:52.752Z,27.08
2022-08-05T16:51:20.714Z,27.19
2022-08-05T16:54:04.896Z,26.63
2022-08-05T16:56:41.707Z,27.83
2022-08-05T16:59:14.683Z,27.96
2022-08-05T17:01:53.937Z,27.60
2022-08-05T17:04:26.607Z,27.43
2022-08-05T17:06:55.689Z,27.35
2022-08-05T17:09:29.609Z,27.69
2022-08-05T17:11:59.703Z,28.75
2022-08-05T17:14:37.748Z,28.99
2022-08-05T17:17:15.047Z,28.80
2022-08-05T17:19:46.980Z,28.69
2022-08-05T17:22:25.290Z,29.53
2022-08-05T17:24:58.794Z,29.69
2022-08-05T17:27:33.654Z,29.05
2022-08-05T17:30:07.048Z,29.87
2022-08-05T17:32:46.342Z,30.97
2022-08-05T17:35:15.569Z,31.76
2022-08-05T17:37:48.652Z,32.70
2022-08-05T17:40:18.652Z,33.27
2022-08-05T17:42:53.261Z,33.78
2022-08-05T17:45:23.058Z,34.20
2022-08-05T17:47:55.085Z,34.45
2022-08-05T17:50:30.466Z,34.55
2022-08-05T17:53:04.763Z,35.51
2022-08-05T17:55:38.389Z,36.15
2022-08-05T17:58:09.779Z,36.58
2022-08-05T18:00:45.083Z,38.27
2022-08-05T18:06:11.986Z,39.89
2022-08-05T18:08:45.886Z,40.75
2022-08-05T18:11:24.472Z,41.36
2022-08-05T18:14:20.394Z,42.15
2022-08-05T18:16:51.933Z,42.45
2022-08-05T18:19:22.986Z,41.47
2022-08-05T18:22:07.136Z,42.11
2022-08-05T18:24:39.519Z,43.42
2022-08-05T18:27:12.357Z,43.41
2022-08-05T18:29:48.211Z,42.84
2022-08-05T18:32:21.939Z,44.50
2022-08-05T18:34:56.551Z,43.55
2022-08-05T18:37:34.151Z,43.83
2022-08-05T18:40:34.259Z,44.20
2022-08-05T18:42:57.926Z,44.07
2022-08-05T18:45:25.599Z,44.40
2022-08-05T18:48:11.464Z,44.68
2022-08-05T18:52:02.776Z,44.29
2022-08-05T18:53:58.450Z,44.36
2022-08-05T18:56:29.344Z,44.85
2022-08-05T18:59:01.120Z,45.37
2022-08-05T19:01:33.244Z,45.47
2022-08-05T19:04:23.873Z,45.90
2022-08-05T19:06:53.735Z,45.92
2022-08-05T19:09:22.989Z,45.89
2022-08-05T19:12:00.088Z,46.17
2022-08-05T19:14:37.728Z,45.91
2022-08-05T19:17:18.028Z,46.18
2022-08-05T19:19:48.678Z,45.81
2022-08-05T19:22:17.203Z,45.38
2022-08-05T19:24:54.474Z,44.79
2022-08-05T19:27:30.520Z,45.76
2022-08-05T19:30:00.463Z,45.51
2022-08-05T19:32:30.477Z,44.51
2022-08-05T19:34:59.062Z,45.21
2022-08-05T19:38:04.504Z,45.28
2022-08-05T19:40:29.803Z,45.33
2022-08-05T19:43:07.317Z,45.51
2022-08-05T19:45:36.822Z,45.39
2022-08-05T19:48:14.498Z,45.65
2022-08-05T19:50:45.142Z,45.74
2022-08-05T19:53:15.305Z,45.82
2022-08-05T19:56:14.630Z,45.46
2022-08-05T19:58:53.836Z,46.63
2022-08-05T20:01:28.392Z,46.93
2022-08-05T20:03:57.982Z,47.20
2022-08-05T20:06:29.105Z,47.35
2022-08-05T20:09:06.158Z,47.56
2022-08-05T20:11:41.895Z,48.28
2022-08-05T20:14:23.478Z,47.96
2022-08-05T20:16:58.592Z,47.53
2022-08-05T20:19:26.487Z,46.81
2022-08-05T20:22:03.736Z,46.31
2022-08-05T20:24:34.680Z,46.49
2022-08-05T20:27:11.608Z,46.59
2022-08-05T20:29:42.379Z,47.49
2022-08-05T20:32:27.822Z,48.43
2022-08-05T20:34:58.738Z,46.65
2022-08-05T20:38:05.636Z,46.41
2022-08-05T20:40:19.334Z,45.76
2022-08-05T20:42:50.218Z,46.69
2022-08-05T20:45:21.066Z,45.71
2022-08-05T20:47:57.092Z,45.78
2022-08-05T20:50:27.491Z,47.60
2022-08-05T20:53:03.251Z,45.12
2022-08-05T20:55:54.996Z,47.81
2022-08-05T20:58:22.219Z,47.59
2022-08-05T21:00:59.037Z,48.11
2022-08-05T21:03:29.189Z,48.06
2022-08-05T21:06:02.584Z,47.74
2022-08-05T21:08:42.504Z,47.30
2022-08-05T21:11:15.170Z,47.06
2022-08-05T21:14:00.572Z,48.03
2022-08-05T21:16:30.963Z,48.06
2022-08-05T21:18:59.871Z,47.93
2022-08-05T21:21:39.515Z,47.91
2022-08-05T21:24:15.439Z,47.93
2022-08-05T21:26:53.156Z,47.81
2022-08-05T21:29:23.416Z,47.68
2022-08-05T21:31:55.808Z,47.82
2022-08-05T21:34:23.598Z,46.70
2022-08-05T21:36:53.219Z,47.26
2022-08-05T21:39:26.742Z,47.69
2022-08-05T21:41:58.917Z,47.59
2022-08-05T21:44:30.979Z,48.13
2022-08-05T21:46:59.974Z,45.75
2022-08-05T21:49:58.545Z,45.61
2022-08-05T21:52:27.060Z,47.76
2022-08-05T21:55:06.193Z,47.93
2022-08-05T21:57:36.694Z,48.10
2022-08-05T22:00:12.653Z,48.19
2022-08-05T22:02:42.593Z,45.38
2022-08-05T22:05:13.426Z,48.03
2022-08-05T22:07:59.273Z,48.78
2022-08-05T22:10:31.702Z,49.18
2022-08-05T22:13:58.794Z,48.55
2022-08-05T22:16:00.957Z,48.88
2022-08-05T22:18:32.636Z,48.84
2022-08-05T22:21:04.273Z,48.72
2022-08-05T22:24:00.794Z,48.54
2022-08-05T22:26:49.875Z,49.40
2022-08-05T22:29:19.044Z,48.54
2022-08-05T22:31:55.323Z,49.04
2022-08-05T22:34:28.343Z,49.03
2022-08-05T22:36:58.394Z,49.00
2022-08-05T22:39:33.646Z,48.84
2022-08-05T22:42:09.546Z,49.11
2022-08-05T22:44:48.568Z,48.73
2022-08-05T22:47:29.148Z,49.02
2022-08-05T22:50:22.792Z,49.79
2022-08-05T22:52:51.324Z,49.44
2022-08-05T22:55:21.577Z,49.07
2022-08-05T22:57:51.987Z,49.75
2022-08-05T23:00:22.437Z,49.24
2022-08-05T23:02:53.568Z,48.98
2022-08-05T23:05:23.273Z,49.46
2022-08-05T23:07:51.904Z,49.22
2022-08-05T23:10:23.926Z,49.86
2022-08-05T23:12:54.917Z,49.80
2022-08-05T23:15:35.135Z,50.24
2022-08-05T23:18:06.128Z,50.70
2022-08-05T23:20:40.240Z,51.40
2022-08-05T23:23:15.565Z,50.70
2022-08-05T23:25:52.099Z,50.22
2022-08-05T23:28:29.016Z,51.24
2022-08-05T23:31:15.652Z,52.75
2022-08-05T23:34:03.181Z,51.62
2022-08-05T23:36:38.679Z,52.01
2022-08-05T23:39:09.811Z,52.34
2022-08-05T23:41:48.626Z,51.44
2022-08-05T23:44:16.946Z,51.56
2022-08-05T23:46:47.403Z,51.49
2022-08-05T23:49:15.938Z,51.16
2022-08-05T23:52:25.320Z,51.21
2022-08-05T23:54:54.324Z,51.34
2022-08-05T23:57:22.120Z,51.31
